createdAt,value
2019-04-25T00:01:12.796Z,41.80
2019-04-25T00:03:47.274Z,41.84
2019-04-25T00:06:23.499Z,41.95
2019-04-25T00:08:58.122Z,42.11
2019-04-25T00:11:32.894Z,41.89
2019-04-25T00:14:07.287Z,42.04
2019-04-25T00:16:44.161Z,42.44
2019-04-25T00:19:18.956Z,42.75
2019-04-25T00:22:12.638Z,42.63
2019-04-25T00:25:15.023Z,42.72
2019-04-25T00:28:53.483Z,42.88
2019-04-25T00:31:27.955Z,43.03
2019-04-25T00:34:02.350Z,43.15
2019-04-25T00:36:38.967Z,43.26
2019-04-25T00:39:12.865Z,43.51
2019-04-25T00:41:47.406Z,43.16
2019-04-25T00:44:22.050Z,43.40
2019-04-25T00:46:56.865Z,43.35
2019-04-25T00:49:32.190Z,43.35
2019-04-25T00:52:06.922Z,43.42
2019-04-25T00:54:42.237Z,43.29
2019-04-25T00:57:17.786Z,43.01
2019-04-25T00:59:56.282Z,43.00
2019-04-25T01:02:35.382Z,42.90
2019-04-25T01:05:11.641Z,42.90
2019-04-25T01:07:45.943Z,42.54
2019-04-25T01:10:21.429Z,42.44
2019-04-25T01:12:56.318Z,42.15
2019-04-25T01:15:31.383Z,42.14
2019-04-25T01:18:06.282Z,42.04
2019-04-25T01:20:40.760Z,41.36
2019-04-25T01:23:13.823Z,41.46
2019-04-25T01:25:48.120Z,41.00
2019-04-25T01:28:22.376Z,40.77
2019-04-25T01:30:56.759Z,40.77
2019-04-25T01:33:31.102Z,41.15
2019-04-25T01:36:13.353Z,41.51
2019-04-25T01:38:56.151Z,41.51
2019-04-25T01:41:39.761Z,41.31
2019-04-25T01:45:25.992Z,41.38
2019-04-25T01:47:59.959Z,41.38
2019-04-25T01:50:35.365Z,41.39
2019-04-25T01:53:09.876Z,41.54
2019-04-25T01:55:53.611Z,41.23
2019-04-25T01:58:19.281Z,41.23
2019-04-25T02:00:55.079Z,41.02
2019-04-25T02:03:30.100Z,40.84
2019-04-25T02:06:05.046Z,40.63
2019-04-25T02:08:39.617Z,40.77
2019-04-25T02:11:35.399Z,40.77
2019-04-25T02:14:10.277Z,40.35
2019-04-25T02:16:44.945Z,40.49
2019-04-25T02:19:20.114Z,40.10
2019-04-25T02:21:55.677Z,40.15
2019-04-25T02:24:30.765Z,40.17
2019-04-25T02:27:05.273Z,40.01
2019-04-25T02:29:39.641Z,39.94
2019-04-25T02:32:14.716Z,39.99
2019-04-25T02:34:49.269Z,39.92
2019-04-25T02:37:25.576Z,39.81
2019-04-25T02:40:01.574Z,39.85
2019-04-25T02:42:36.105Z,39.72
2019-04-25T02:45:34.393Z,39.56
2019-04-25T02:48:27.628Z,39.54
2019-04-25T02:51:10.782Z,39.61
2019-04-25T02:53:46.711Z,39.61
2019-04-25T02:56:31.351Z,39.60
2019-04-25T02:58:58.324Z,39.80
2019-04-25T03:01:34.265Z,40.09
2019-04-25T03:04:10.774Z,39.83
2019-04-25T03:06:45.988Z,39.94
2019-04-25T03:09:20.323Z,42.13
2019-04-25T03:11:54.941Z,43.28
2019-04-25T03:14:30.243Z,43.28
2019-04-25T03:17:08.232Z,43.42
2019-04-25T03:19:59.862Z,43.62
2019-04-25T03:22:34.519Z,43.38
2019-04-25T03:25:13.019Z,43.38
2019-04-25T03:27:45.328Z,42.54
2019-04-25T03:30:19.762Z,41.83
2019-04-25T03:32:52.701Z,41.47
2019-04-25T03:35:26.888Z,42.33
2019-04-25T03:38:00.459Z,43.55
2019-04-25T03:40:35.299Z,43.68
2019-04-25T03:43:09.702Z,44.11
2019-04-25T03:45:45.287Z,44.56
2019-04-25T03:48:19.720Z,44.56
2019-04-25T03:50:54.083Z,44.68
2019-04-25T03:53:28.536Z,43.77
2019-04-25T03:56:05.120Z,43.77
2019-04-25T03:58:39.127Z,43.24
2019-04-25T04:01:15.425Z,44.49
2019-04-25T04:03:49.719Z,44.49
2019-04-25T04:06:24.075Z,45.08
2019-04-25T04:08:58.275Z,45.08
2019-04-25T04:11:33.714Z,44.82
2019-04-25T04:14:07.083Z,44.81
2019-04-25T04:16:45.283Z,44.33
2019-04-25T04:19:19.741Z,44.33
2019-04-25T04:22:15.401Z,44.33
2019-04-25T04:24:53.902Z,44.20
2019-04-25T04:27:28.347Z,44.21
2019-04-25T04:30:04.185Z,44.21
2019-04-25T04:32:38.711Z,44.55
2019-04-25T04:35:14.624Z,44.47
2019-04-25T04:37:48.943Z,44.47
2019-04-25T04:40:24.244Z,43.03
2019-04-25T04:42:58.855Z,42.91
2019-04-25T04:45:31.860Z,42.91
2019-04-25T04:48:04.683Z,42.76
2019-04-25T04:50:39.934Z,42.20
2019-04-25T04:53:14.958Z,41.32
2019-04-25T04:55:49.745Z,41.02
2019-04-25T04:58:25.157Z,41.94
2019-04-25T05:00:59.787Z,42.74
2019-04-25T05:04:04.654Z,42.86
2019-04-25T05:07:06.646Z,43.26
2019-04-25T05:09:41.292Z,43.33
2019-04-25T05:12:16.217Z,43.57
2019-04-25T05:14:50.855Z,43.42
2019-04-25T05:17:25.380Z,43.08
2019-04-25T05:19:59.741Z,43.17
2019-04-25T05:22:33.938Z,43.17
2019-04-25T05:25:08.270Z,42.11
2019-04-25T05:27:57.712Z,40.26
2019-04-25T05:30:26.328Z,38.81
2019-04-25T05:32:59.884Z,39.14
2019-04-25T05:35:33.358Z,39.24
2019-04-25T05:38:07.720Z,39.31
2019-04-25T05:40:58.356Z,39.31
2019-04-25T05:43:33.438Z,39.85
2019-04-25T05:46:08.299Z,39.85
2019-04-25T05:48:43.826Z,39.90
2019-04-25T05:51:17.401Z,39.60
2019-04-25T05:53:52.293Z,37.91
2019-04-25T05:56:28.307Z,35.77
2019-04-25T05:59:03.330Z,35.53
2019-04-25T06:01:38.934Z,36.01
2019-04-25T06:04:13.988Z,36.61
2019-04-25T06:06:48.676Z,36.84
2019-04-25T06:09:44.936Z,36.84
2019-04-25T06:12:31.266Z,36.62
2019-04-25T06:15:05.908Z,36.53
2019-04-25T06:17:58.273Z,36.89
2019-04-25T06:20:36.274Z,37.00
2019-04-25T06:23:26.882Z,37.40
2019-04-25T06:26:16.089Z,36.34
2019-04-25T06:28:49.450Z,35.09
2019-04-25T06:31:14.256Z,35.09
2019-04-25T06:33:49.005Z,34.82
2019-04-25T06:37:27.018Z,33.81
2019-04-25T06:40:03.405Z,33.43
2019-04-25T06:42:39.532Z,33.43
2019-04-25T06:45:50.268Z,33.08
2019-04-25T06:48:33.900Z,32.53
2019-04-25T06:51:09.269Z,31.47
2019-04-25T06:53:43.745Z,29.45
2019-04-25T06:56:18.076Z,30.37
2019-04-25T06:58:53.294Z,30.36
2019-04-25T07:01:28.996Z,30.36
2019-04-25T07:04:04.084Z,29.88
2019-04-25T07:06:38.686Z,29.88
2019-04-25T07:09:14.668Z,30.16
2019-04-25T07:11:49.350Z,29.02
2019-04-25T07:14:25.839Z,29.09
2019-04-25T07:17:00.362Z,27.94
2019-04-25T07:19:35.590Z,27.81
2019-04-25T07:22:10.327Z,27.00
2019-04-25T07:24:44.858Z,26.75
2019-04-25T07:27:36.358Z,26.61
2019-04-25T07:30:46.834Z,26.89
2019-04-25T07:33:13.869Z,26.95
2019-04-25T07:35:48.325Z,26.95
2019-04-25T07:39:40.947Z,24.95
2019-04-25T07:42:15.588Z,24.93
2019-04-25T07:44:52.938Z,24.23
2019-04-25T07:47:26.952Z,25.02
2019-04-25T07:50:01.791Z,23.12
2019-04-25T07:52:36.313Z,23.12
2019-04-25T07:55:11.659Z,23.10
2019-04-25T07:57:46.273Z,22.92
2019-04-25T08:00:23.890Z,22.38
2019-04-25T08:05:27.809Z,21.22
2019-04-25T08:08:03.534Z,20.98
2019-04-25T08:11:00.763Z,20.24
2019-04-25T08:13:56.811Z,20.53
2019-04-25T08:16:34.171Z,20.18
2019-04-25T08:19:08.943Z,18.92
2019-04-25T08:21:44.952Z,18.92
2019-04-25T08:24:19.650Z,16.92
2019-04-25T08:26:54.275Z,16.92
2019-04-25T08:29:28.769Z,16.50
2019-04-25T08:32:02.278Z,14.39
2019-04-25T08:34:37.330Z,14.30
2019-04-25T08:37:19.071Z,12.99
2019-04-25T08:39:48.399Z,12.99
2019-04-25T08:42:24.261Z,13.92
2019-04-25T08:45:00.117Z,12.85
2019-04-25T08:47:35.905Z,12.86
2019-04-25T08:50:28.941Z,12.63
2019-04-25T08:55:14.121Z,12.27
2019-04-25T08:58:10.283Z,12.71
2019-04-25T09:01:04.094Z,12.35
2019-04-25T09:03:45.793Z,12.62
2019-04-25T09:06:18.713Z,12.35
2019-04-25T09:08:54.057Z,11.66
2019-04-25T09:11:28.627Z,11.66
2019-04-25T09:14:03.709Z,11.58
2019-04-25T09:16:38.253Z,12.10
2019-04-25T09:19:14.138Z,12.01
2019-04-25T09:21:49.609Z,11.81
2019-04-25T09:24:24.429Z,11.50
2019-04-25T09:26:58.693Z,11.48
2019-04-25T09:29:34.552Z,10.74
2019-04-25T09:32:09.083Z,11.45
2019-04-25T09:34:43.725Z,11.13
2019-04-25T09:37:18.655Z,11.13
2019-04-25T09:40:11.519Z,11.72
2019-04-25T09:42:47.757Z,11.72
2019-04-25T09:45:53.291Z,11.42
2019-04-25T09:48:40.254Z,11.44
2019-04-25T09:51:19.768Z,11.70
2019-04-25T09:53:59.277Z,11.27
2019-04-25T09:56:41.349Z,11.31
2019-04-25T09:59:27.249Z,11.31
2019-04-25T10:01:55.646Z,11.81
2019-04-25T10:04:31.279Z,10.37
2019-04-25T10:07:06.286Z,10.73
2019-04-25T10:09:40.961Z,10.90
2019-04-25T10:12:49.969Z,9.21
2019-04-25T10:15:54.460Z,9.12
2019-04-25T10:18:29.279Z,9.63
2019-04-25T10:21:05.271Z,9.84
2019-04-25T10:23:40.315Z,9.75
2019-04-25T10:26:15.946Z,10.13
2019-04-25T10:28:50.126Z,9.91
2019-04-25T10:31:24.785Z,10.23
2019-04-25T10:33:58.803Z,9.94
2019-04-25T10:36:33.647Z,9.94
2019-04-25T10:39:11.160Z,11.05
2019-04-25T10:41:47.025Z,10.77
2019-04-25T10:44:24.422Z,10.15
2019-04-25T10:46:58.090Z,10.15
2019-04-25T10:49:34.374Z,10.13
2019-04-25T10:52:09.325Z,10.04
2019-04-25T10:54:45.385Z,9.82
2019-04-25T10:57:20.540Z,9.37
2019-04-25T11:00:06.128Z,9.88
2019-04-25T11:02:33.942Z,9.54
2019-04-25T11:05:13.734Z,9.72
2019-04-25T11:07:46.994Z,9.16
2019-04-25T11:10:20.091Z,9.00
2019-04-25T11:12:55.206Z,8.96
2019-04-25T11:15:29.843Z,8.45
2019-04-25T11:18:04.342Z,8.45
2019-04-25T11:20:41.258Z,8.48
2019-04-25T11:23:37.079Z,8.77
2019-04-25T11:26:11.719Z,8.33
2019-04-25T11:28:46.954Z,8.33
2019-04-25T11:31:27.376Z,8.43
2019-04-25T11:34:03.564Z,8.36
2019-04-25T11:36:37.118Z,7.23
2019-04-25T11:39:33.305Z,7.26
2019-04-25T11:42:16.406Z,7.26
2019-04-25T11:44:51.279Z,7.08
2019-04-25T11:47:26.117Z,7.68
2019-04-25T11:50:00.685Z,6.95
2019-04-25T11:52:35.024Z,6.95
2019-04-25T11:55:10.271Z,6.60
2019-04-25T11:57:48.732Z,6.60
2019-04-25T12:00:25.084Z,6.61
2019-04-25T12:02:59.718Z,6.77
2019-04-25T12:05:36.282Z,6.77
2019-04-25T12:08:10.946Z,6.83
2019-04-25T12:10:45.855Z,6.86
2019-04-25T12:13:20.097Z,6.47
2019-04-25T12:15:55.684Z,6.60
2019-04-25T12:18:29.275Z,7.07
2019-04-25T12:21:04.233Z,6.56
2019-04-25T12:23:39.278Z,6.56
2019-04-25T12:26:14.306Z,6.54
2019-04-25T12:28:49.352Z,6.86
2019-04-25T12:31:23.938Z,6.25
2019-04-25T12:33:59.111Z,6.38
2019-04-25T12:36:34.119Z,6.28
2019-04-25T12:39:10.274Z,6.28
2019-04-25T12:41:46.905Z,6.64
2019-04-25T12:44:48.783Z,6.77
2019-04-25T12:47:23.982Z,6.06
2019-04-25T12:49:58.787Z,5.87
2019-04-25T12:52:33.416Z,5.87
2019-04-25T12:55:09.495Z,6.28
2019-04-25T12:57:44.283Z,6.26
2019-04-25T13:00:24.332Z,5.98
2019-04-25T13:02:59.267Z,5.98
2019-04-25T13:05:34.233Z,6.07
2019-04-25T13:08:08.977Z,6.02
2019-04-25T13:10:44.526Z,6.62
2019-04-25T13:13:20.091Z,6.69
2019-04-25T13:15:55.069Z,6.85
2019-04-25T13:18:30.896Z,6.60
2019-04-25T13:21:05.678Z,6.60
2019-04-25T13:23:38.873Z,6.91
2019-04-25T13:26:12.034Z,6.64
2019-04-25T13:29:06.731Z,6.71
2019-04-25T13:32:06.263Z,6.43
2019-04-25T13:34:45.093Z,6.66
2019-04-25T13:37:19.948Z,6.95
2019-04-25T13:39:55.316Z,6.95
2019-04-25T13:42:30.281Z,6.98
2019-04-25T13:45:05.155Z,6.71
2019-04-25T13:47:40.878Z,7.23
2019-04-25T13:50:16.274Z,7.23
2019-04-25T13:52:51.039Z,7.12
2019-04-25T13:55:25.854Z,6.87
2019-04-25T13:57:59.279Z,7.05
2019-04-25T14:00:34.919Z,7.15
2019-04-25T14:03:09.939Z,7.10
2019-04-25T14:05:44.685Z,7.04
2019-04-25T14:08:18.861Z,7.04
2019-04-25T14:10:51.997Z,7.17
2019-04-25T14:13:26.569Z,7.34
2019-04-25T14:16:18.595Z,7.24
2019-04-25T14:19:07.241Z,7.76
2019-04-25T14:21:43.411Z,8.36
2019-04-25T14:24:20.552Z,8.36
2019-04-25T14:26:54.791Z,8.42
2019-04-25T14:29:29.721Z,8.42
2019-04-25T14:32:05.725Z,8.45
2019-04-25T14:34:40.067Z,8.46
2019-04-25T14:37:14.636Z,9.24
2019-04-25T14:39:49.267Z,9.24
2019-04-25T14:42:24.528Z,9.57
2019-04-25T14:47:16.863Z,9.23
2019-04-25T14:49:51.870Z,9.23
2019-04-25T14:52:26.328Z,9.35
2019-04-25T14:55:15.096Z,9.61
2019-04-25T14:57:50.269Z,9.58
2019-04-25T15:00:38.300Z,9.77
2019-04-25T15:03:13.290Z,9.76
2019-04-25T15:05:48.212Z,9.76
2019-04-25T15:08:22.674Z,9.70
2019-04-25T15:10:57.107Z,10.20
2019-04-25T15:13:31.881Z,10.20
2019-04-25T15:16:06.857Z,10.36
2019-04-25T15:18:46.976Z,10.36
2019-04-25T15:21:18.711Z,10.41
2019-04-25T15:24:00.079Z,10.73
2019-04-25T15:26:29.681Z,11.75
2019-04-25T15:29:05.272Z,11.75
2019-04-25T15:31:40.068Z,12.32
2019-04-25T15:34:14.863Z,12.64
2019-04-25T15:36:56.515Z,12.64
2019-04-25T15:39:40.409Z,13.05
2019-04-25T15:42:34.001Z,13.35
2019-04-25T15:45:34.224Z,14.26
2019-04-25T15:48:09.328Z,14.26
2019-04-25T15:50:44.277Z,14.53
2019-04-25T15:53:18.695Z,14.81
2019-04-25T15:55:52.023Z,14.97
2019-04-25T15:58:27.604Z,15.36
2019-04-25T16:01:02.108Z,15.91
2019-04-25T16:03:36.927Z,15.93
2019-04-25T16:06:54.872Z,17.08
2019-04-25T16:09:29.769Z,17.08
2019-04-25T16:12:04.315Z,17.26
2019-04-25T16:14:39.240Z,17.46
2019-04-25T16:17:13.874Z,17.74
2019-04-25T16:19:48.420Z,17.90
2019-04-25T16:22:23.116Z,18.21
2019-04-25T16:24:57.689Z,18.11
2019-04-25T16:27:32.589Z,18.11
2019-04-25T16:30:06.860Z,18.26
2019-04-25T16:33:30.738Z,18.53
2019-04-25T16:36:05.772Z,18.74
2019-04-25T16:38:38.997Z,18.95
2019-04-25T16:41:15.284Z,19.50
2019-04-25T16:43:53.353Z,19.50
2019-04-25T16:46:28.802Z,19.73
2019-04-25T16:49:03.308Z,19.73
2019-04-25T16:51:38.276Z,19.81
2019-04-25T16:54:14.856Z,19.97
2019-04-25T16:56:49.363Z,20.14
2019-04-25T16:59:23.765Z,20.32
2019-04-25T17:01:56.786Z,20.62
2019-04-25T17:04:31.633Z,20.74
2019-04-25T17:07:06.372Z,20.70
2019-04-25T17:09:40.967Z,20.95
2019-04-25T17:12:16.322Z,21.22
2019-04-25T17:15:15.732Z,21.25
2019-04-25T17:18:11.040Z,21.41
2019-04-25T17:20:57.648Z,21.51
2019-04-25T17:23:32.382Z,21.69
2019-04-25T17:26:07.480Z,21.91
2019-04-25T17:28:44.678Z,22.04
2019-04-25T17:31:37.255Z,22.21
2019-04-25T17:34:41.030Z,22.39
2019-04-25T17:37:19.281Z,22.62
2019-04-25T17:39:56.288Z,22.91
2019-04-25T17:43:55.353Z,23.42
2019-04-25T17:46:30.290Z,23.42
2019-04-25T17:49:05.284Z,23.58
2019-04-25T17:51:40.272Z,23.67
2019-04-25T17:54:15.397Z,23.98
2019-04-25T17:56:50.129Z,23.92
2019-04-25T17:59:24.790Z,23.93
2019-04-25T18:01:59.425Z,24.22
2019-04-25T18:04:34.148Z,25.35
2019-04-25T18:07:09.908Z,25.21
2019-04-25T18:09:45.477Z,25.21
2019-04-25T18:12:20.294Z,25.53
2019-04-25T18:14:56.474Z,25.80
2019-04-25T18:17:31.061Z,25.86
2019-04-25T18:20:13.545Z,26.27
2019-04-25T18:23:03.899Z,26.72
2019-04-25T18:26:02.620Z,26.72
2019-04-25T18:28:47.752Z,26.83
2019-04-25T18:31:21.026Z,27.13
2019-04-25T18:33:56.638Z,27.23
2019-04-25T18:36:49.676Z,27.58
2019-04-25T18:39:31.688Z,27.70
2019-04-25T18:42:23.464Z,27.94
2019-04-25T18:44:58.080Z,28.09
2019-04-25T18:47:32.693Z,28.72
2019-04-25T18:50:08.515Z,28.72
2019-04-25T18:53:07.794Z,28.38
2019-04-25T18:56:02.477Z,28.80
2019-04-25T18:58:52.374Z,28.96
2019-04-25T19:01:49.592Z,28.71
2019-04-25T19:04:32.777Z,29.07
2019-04-25T19:07:06.316Z,29.07
2019-04-25T19:09:40.800Z,29.50
2019-04-25T19:12:13.714Z,29.53
2019-04-25T19:14:48.292Z,29.82
2019-04-25T19:17:22.794Z,29.65
2019-04-25T19:19:57.064Z,29.80
2019-04-25T19:22:33.404Z,30.01
2019-04-25T19:25:08.965Z,30.21
2019-04-25T19:27:44.111Z,30.34
2019-04-25T19:30:20.284Z,30.46
2019-04-25T19:32:54.908Z,30.47
2019-04-25T19:35:29.289Z,30.69
2019-04-25T19:38:03.949Z,30.73
2019-04-25T19:40:44.000Z,30.72
2019-04-25T19:43:26.646Z,30.79
2019-04-25T19:46:01.288Z,31.13
2019-04-25T19:48:35.919Z,31.13
2019-04-25T19:51:10.305Z,31.23
2019-04-25T19:53:45.039Z,31.72
2019-04-25T19:57:21.299Z,31.57
2019-04-25T19:59:55.842Z,31.84
2019-04-25T20:02:39.478Z,31.91
2019-04-25T20:05:21.279Z,32.08
2019-04-25T20:08:05.679Z,32.18
2019-04-25T20:10:45.102Z,32.36
2019-04-25T20:13:19.771Z,32.40
2019-04-25T20:15:53.855Z,32.38
2019-04-25T20:18:26.699Z,32.40
2019-04-25T20:21:00.957Z,32.50
2019-04-25T20:23:36.407Z,32.59
2019-04-25T20:26:11.287Z,32.57
2019-04-25T20:28:46.179Z,32.57
2019-04-25T20:31:20.878Z,32.81
2019-04-25T20:34:05.388Z,32.83
2019-04-25T20:36:31.298Z,33.00
2019-04-25T20:39:07.695Z,33.02
2019-04-25T20:41:44.091Z,33.01
2019-04-25T20:44:21.003Z,33.06
2019-04-25T20:46:55.320Z,33.06
2019-04-25T20:49:29.977Z,33.18
2019-04-25T20:52:04.715Z,33.17
2019-04-25T20:54:37.868Z,33.17
2019-04-25T20:57:11.062Z,33.15
2019-04-25T20:59:45.321Z,33.21
2019-04-25T21:04:37.287Z,33.46
2019-04-25T21:07:13.289Z,33.65
2019-04-25T21:09:47.753Z,33.65
2019-04-25T21:13:38.720Z,33.32
2019-04-25T21:16:30.484Z,33.32
2019-04-25T21:19:09.723Z,33.53
2019-04-25T21:21:44.303Z,33.68
2019-04-25T21:24:18.733Z,33.79
2019-04-25T21:27:54.492Z,33.92
2019-04-25T21:30:29.293Z,33.98
2019-04-25T21:33:03.986Z,33.98
2019-04-25T21:35:39.254Z,34.10
2019-04-25T21:38:15.443Z,34.15
2019-04-25T21:41:12.655Z,34.28
2019-04-25T21:43:51.707Z,34.23
2019-04-25T21:46:26.462Z,34.40
2019-04-25T21:49:01.284Z,34.40
2019-04-25T21:51:35.942Z,34.45
2019-04-25T21:54:10.570Z,34.58
2019-04-25T21:56:43.808Z,34.32
2019-04-25T21:59:19.685Z,34.72
2019-04-25T22:02:11.297Z,34.66
2019-04-25T22:04:46.996Z,34.66
2019-04-25T22:07:21.962Z,34.75
2019-04-25T22:09:57.024Z,34.91
2019-04-25T22:12:31.684Z,34.93
2019-04-25T22:15:07.343Z,34.93
2019-04-25T22:17:41.713Z,34.93
2019-04-25T22:20:14.874Z,35.01
2019-04-25T22:22:49.359Z,34.94
2019-04-25T22:25:23.876Z,35.07
2019-04-25T22:27:58.901Z,35.04
2019-04-25T22:30:33.656Z,35.12
2019-04-25T22:33:21.360Z,35.12
2019-04-25T22:36:03.987Z,35.13
2019-04-25T22:41:30.400Z,35.23
2019-04-25T22:44:06.083Z,35.33
2019-04-25T22:46:41.089Z,35.42
2019-04-25T22:49:21.528Z,35.43
2019-04-25T22:51:55.958Z,35.43
2019-04-25T22:54:30.949Z,35.41
2019-04-25T22:57:06.286Z,35.42
2019-04-25T22:59:39.647Z,35.46
2019-04-25T23:02:38.442Z,35.50
2019-04-25T23:05:37.568Z,35.27
2019-04-25T23:08:12.641Z,35.27
2019-04-25T23:10:46.939Z,35.64
2019-04-25T23:13:21.361Z,35.53
2019-04-25T23:15:57.318Z,35.96
2019-04-25T23:18:31.955Z,35.96
2019-04-25T23:21:06.787Z,36.00
2019-04-25T23:26:11.821Z,36.22
2019-04-25T23:28:47.300Z,36.00
2019-04-25T23:31:25.954Z,36.00
2019-04-25T23:34:00.630Z,35.97
2019-04-25T23:36:34.950Z,36.23
2019-04-25T23:39:11.256Z,36.06
2019-04-25T23:41:45.947Z,36.05
2019-04-25T23:44:20.298Z,36.07
2019-04-25T23:46:54.942Z,36.12
2019-04-25T23:49:29.304Z,36.29
2019-04-25T23:52:03.950Z,36.49
2019-04-25T23:54:38.120Z,36.53
2019-04-25T23:57:13.313Z,36.59
2019-04-25T23:59:47.749Z,36.58
